createdAt,value
2019-02-20T00:02:39.263Z,-1.58
2019-02-20T00:05:27.532Z,-1.69
2019-02-20T00:08:15.258Z,-2.00
2019-02-20T00:11:03.259Z,-1.88
2019-02-20T00:13:51.432Z,-1.69
2019-02-20T00:16:39.711Z,-1.78
2019-02-20T00:19:27.947Z,-1.76
2019-02-20T00:22:16.341Z,-1.47
2019-02-20T00:25:05.518Z,-1.16
2019-02-20T00:27:53.514Z,-1.12
2019-02-20T00:30:41.335Z,-0.97
2019-02-20T00:33:29.417Z,-1.46
2019-02-20T00:36:17.731Z,-1.79
2019-02-20T00:39:07.892Z,-2.11
2019-02-20T00:41:56.384Z,-2.29
2019-02-20T00:45:03.323Z,-2.08
2019-02-20T00:48:17.495Z,-2.02
2019-02-20T00:51:24.539Z,-1.66
2019-02-20T00:54:12.139Z,-1.89
2019-02-20T00:57:00.314Z,-2.18
2019-02-20T00:59:48.052Z,-2.23
2019-02-20T01:02:36.435Z,-1.91
2019-02-20T01:05:24.861Z,-1.98
2019-02-20T01:08:13.104Z,-1.84
2019-02-20T01:11:01.543Z,-1.66
2019-02-20T01:13:49.501Z,-1.77
2019-02-20T01:16:37.591Z,-1.41
2019-02-20T01:19:25.717Z,-1.41
2019-02-20T01:22:14.123Z,-1.55
2019-02-20T01:25:02.097Z,-1.56
2019-02-20T01:27:50.790Z,-1.95
2019-02-20T01:30:38.695Z,-2.10
2019-02-20T01:33:26.789Z,-2.09
2019-02-20T01:36:15.132Z,-2.42
2019-02-20T01:39:04.682Z,-2.03
2019-02-20T01:41:52.308Z,-2.28
2019-02-20T01:44:40.683Z,-2.17
2019-02-20T01:47:28.999Z,-2.51
2019-02-20T01:50:20.540Z,-2.19
2019-02-20T01:53:10.620Z,-2.26
2019-02-20T01:55:58.091Z,-2.19
2019-02-20T01:58:46.563Z,-1.97
2019-02-20T02:01:34.481Z,-1.94
2019-02-20T02:04:22.473Z,-2.04
2019-02-20T02:07:10.906Z,-2.46
2019-02-20T02:09:58.895Z,-2.50
2019-02-20T02:12:47.294Z,-2.39
2019-02-20T02:15:35.326Z,-2.59
2019-02-20T02:18:23.067Z,-2.40
2019-02-20T02:21:11.445Z,-2.34
2019-02-20T02:23:59.315Z,-2.41
2019-02-20T02:26:46.995Z,-2.43
2019-02-20T02:29:35.043Z,-2.53
2019-02-20T02:32:23.451Z,-2.79
2019-02-20T02:35:11.706Z,-2.55
2019-02-20T02:37:59.700Z,-2.66
2019-02-20T02:40:47.892Z,-2.56
2019-02-20T02:43:35.503Z,-2.69
2019-02-20T02:46:23.694Z,-2.61
2019-02-20T02:49:11.777Z,-2.82
2019-02-20T02:51:59.863Z,-2.55
2019-02-20T02:54:48.273Z,-2.50
2019-02-20T02:57:36.418Z,-2.60
2019-02-20T03:00:24.892Z,-2.88
2019-02-20T03:03:12.981Z,-2.79
2019-02-20T03:06:01.338Z,-2.91
2019-02-20T03:08:49.797Z,-2.67
2019-02-20T03:11:37.384Z,-2.60
2019-02-20T03:14:25.586Z,-2.37
2019-02-20T03:17:13.287Z,-2.45
2019-02-20T03:20:01.718Z,-2.42
2019-02-20T03:22:49.891Z,-2.19
2019-02-20T03:25:37.992Z,-2.03
2019-02-20T03:28:26.320Z,-2.45
2019-02-20T03:31:14.692Z,-3.06
2019-02-20T03:34:03.055Z,-3.19
2019-02-20T03:36:50.774Z,-2.85
2019-02-20T03:39:38.708Z,-2.73
2019-02-20T03:42:26.962Z,-2.81
2019-02-20T03:45:15.386Z,-2.69
2019-02-20T03:48:03.887Z,-2.49
2019-02-20T03:50:52.016Z,-2.69
2019-02-20T03:53:50.870Z,-2.72
2019-02-20T03:56:29.897Z,-2.96
2019-02-20T03:59:17.738Z,-2.99
2019-02-20T04:02:05.877Z,-3.30
2019-02-20T04:04:54.149Z,-3.54
2019-02-20T04:07:41.814Z,-3.29
2019-02-20T04:10:30.332Z,-3.10
2019-02-20T04:13:18.742Z,-2.77
2019-02-20T04:16:06.959Z,-2.68
2019-02-20T04:18:54.684Z,-2.76
2019-02-20T04:21:42.779Z,-2.69
2019-02-20T04:24:30.467Z,-2.74
2019-02-20T04:27:18.915Z,-2.97
2019-02-20T04:30:07.528Z,-2.96
2019-02-20T04:32:55.980Z,-3.03
2019-02-20T04:35:44.616Z,-2.97
2019-02-20T04:38:32.283Z,-2.84
2019-02-20T04:41:20.637Z,-3.04
2019-02-20T04:44:09.223Z,-3.09
2019-02-20T04:46:57.788Z,-2.68
2019-02-20T04:49:45.544Z,-2.13
2019-02-20T04:52:33.408Z,-2.53
2019-02-20T04:55:21.912Z,-2.64
2019-02-20T04:58:17.265Z,-2.73
2019-02-20T05:01:05.511Z,-2.86
2019-02-20T05:03:54.039Z,-3.14
2019-02-20T05:06:42.395Z,-3.47
2019-02-20T05:09:30.408Z,-3.24
2019-02-20T05:12:19.138Z,-3.21
2019-02-20T05:15:07.572Z,-3.13
2019-02-20T05:17:56.134Z,-3.10
2019-02-20T05:20:44.529Z,-3.23
2019-02-20T05:23:32.630Z,-3.65
2019-02-20T05:26:20.307Z,-3.68
2019-02-20T05:29:08.199Z,-3.98
2019-02-20T05:31:56.520Z,-3.88
2019-02-20T05:34:44.214Z,-3.70
2019-02-20T05:37:32.560Z,-3.62
2019-02-20T05:40:21.162Z,-3.47
2019-02-20T05:43:09.168Z,-3.18
2019-02-20T05:45:57.367Z,-3.24
2019-02-20T05:48:45.402Z,-2.87
2019-02-20T05:51:35.798Z,-2.91
2019-02-20T05:54:33.867Z,-2.54
2019-02-20T05:57:13.168Z,-2.12
2019-02-20T06:00:01.130Z,-1.56
2019-02-20T06:02:49.130Z,-1.77
2019-02-20T06:05:37.519Z,-1.74
2019-02-20T06:08:25.771Z,-1.76
2019-02-20T06:11:15.455Z,-1.78
2019-02-20T06:14:04.147Z,-1.38
2019-02-20T06:16:52.503Z,-1.55
2019-02-20T06:19:40.922Z,-1.36
2019-02-20T06:22:29.434Z,-1.44
2019-02-20T06:25:17.132Z,-1.10
2019-02-20T06:28:05.174Z,-1.02
2019-02-20T06:30:53.359Z,-0.55
2019-02-20T06:33:41.804Z,-0.02
2019-02-20T06:36:30.174Z,0.69
2019-02-20T06:39:18.514Z,1.21
2019-02-20T06:42:06.922Z,1.38
2019-02-20T06:44:55.425Z,0.71
2019-02-20T06:47:43.858Z,0.84
2019-02-20T06:50:31.589Z,0.68
2019-02-20T06:53:19.697Z,0.70
2019-02-20T06:56:10.165Z,0.38
2019-02-20T06:58:58.684Z,0.17
2019-02-20T07:01:47.011Z,0.13
2019-02-20T07:04:35.494Z,0.22
2019-02-20T07:07:44.748Z,0.35
2019-02-20T07:10:50.651Z,0.43
2019-02-20T07:13:53.451Z,0.72
2019-02-20T07:17:05.034Z,0.95
2019-02-20T07:20:30.418Z,1.40
2019-02-20T07:23:31.644Z,1.87
2019-02-20T07:26:42.164Z,2.33
2019-02-20T07:29:45.191Z,2.47
2019-02-20T07:32:33.707Z,2.62
2019-02-20T07:35:22.104Z,2.11
2019-02-20T07:38:09.808Z,2.35
2019-02-20T07:40:58.264Z,2.80
2019-02-20T07:43:46.450Z,2.68
2019-02-20T07:46:35.131Z,2.93
2019-02-20T07:49:22.998Z,2.99
2019-02-20T07:52:11.431Z,3.17
2019-02-20T07:54:59.526Z,3.09
2019-02-20T07:57:47.734Z,3.37
2019-02-20T08:00:35.897Z,3.61
2019-02-20T08:03:24.257Z,3.39
2019-02-20T08:06:12.857Z,3.20
2019-02-20T08:09:01.186Z,3.77
2019-02-20T08:11:49.556Z,4.13
2019-02-20T08:14:38.024Z,4.41
2019-02-20T08:17:25.670Z,4.79
2019-02-20T08:20:14.182Z,5.25
2019-02-20T08:23:02.222Z,5.37
2019-02-20T08:25:50.292Z,5.48
2019-02-20T08:28:38.684Z,5.33
2019-02-20T08:31:27.213Z,5.46
2019-02-20T08:34:15.024Z,5.25
2019-02-20T08:37:03.482Z,5.12
2019-02-20T08:39:51.843Z,5.39
2019-02-20T08:42:40.759Z,5.80
2019-02-20T08:45:29.062Z,6.07
2019-02-20T08:48:18.460Z,6.16
2019-02-20T08:51:06.818Z,6.28
2019-02-20T08:53:54.929Z,6.54
2019-02-20T08:56:43.340Z,6.71
2019-02-20T08:59:31.578Z,6.70
2019-02-20T09:02:19.548Z,6.82
2019-02-20T09:05:07.927Z,7.21
2019-02-20T09:07:56.188Z,7.47
2019-02-20T09:10:44.097Z,7.66
2019-02-20T09:13:32.452Z,7.62
2019-02-20T09:16:20.516Z,7.83
2019-02-20T09:19:08.203Z,7.97
2019-02-20T09:21:56.758Z,7.81
2019-02-20T09:24:45.128Z,7.95
2019-02-20T09:27:33.590Z,8.06
2019-02-20T09:30:28.253Z,8.24
2019-02-20T09:33:11.304Z,8.38
2019-02-20T09:35:59.944Z,8.64
2019-02-20T09:38:48.368Z,8.62
2019-02-20T09:41:36.044Z,8.85
2019-02-20T09:44:24.504Z,9.04
2019-02-20T09:47:11.975Z,9.42
2019-02-20T09:49:59.779Z,9.49
2019-02-20T09:52:52.249Z,9.67
2019-02-20T09:55:36.891Z,9.99
2019-02-20T09:58:27.873Z,10.14
2019-02-20T10:01:16.430Z,10.05
2019-02-20T10:04:04.549Z,10.13
2019-02-20T10:06:53.685Z,10.02
2019-02-20T10:09:42.076Z,10.20
2019-02-20T10:12:30.603Z,10.18
2019-02-20T10:15:19.182Z,10.50
2019-02-20T10:18:07.727Z,10.89
2019-02-20T10:20:55.674Z,10.94
2019-02-20T10:23:45.197Z,11.12
2019-02-20T10:26:33.426Z,11.31
2019-02-20T10:29:22.008Z,11.42
2019-02-20T10:32:10.014Z,11.16
2019-02-20T10:34:58.141Z,11.71
2019-02-20T10:37:45.807Z,11.89
2019-02-20T10:40:34.143Z,12.13
2019-02-20T10:43:22.432Z,12.48
2019-02-20T10:46:10.838Z,12.56
2019-02-20T10:48:58.465Z,12.77
2019-02-20T10:51:47.092Z,12.91
2019-02-20T10:54:35.478Z,12.82
2019-02-20T10:57:23.583Z,12.77
2019-02-20T11:00:23.575Z,12.77
2019-02-20T11:03:06.444Z,12.74
2019-02-20T11:05:54.336Z,12.39
2019-02-20T11:08:42.794Z,12.64
2019-02-20T11:11:30.735Z,12.88
2019-02-20T11:14:18.864Z,13.05
2019-02-20T11:17:07.263Z,12.97
2019-02-20T11:19:55.791Z,13.12
2019-02-20T11:22:44.007Z,13.07
2019-02-20T11:25:32.442Z,12.84
2019-02-20T11:28:26.852Z,13.05
2019-02-20T11:31:09.591Z,12.90
2019-02-20T11:33:57.936Z,12.83
2019-02-20T11:36:46.303Z,12.97
2019-02-20T11:39:37.648Z,12.97
2019-02-20T11:42:25.483Z,12.89
2019-02-20T11:45:13.491Z,13.00
2019-02-20T11:48:01.598Z,12.75
2019-02-20T11:50:49.580Z,13.16
2019-02-20T11:53:38.732Z,13.23
2019-02-20T11:56:26.988Z,13.20
2019-02-20T11:59:15.119Z,13.09
2019-02-20T12:02:02.942Z,12.99
2019-02-20T12:04:51.348Z,13.18
2019-02-20T12:07:39.066Z,13.18
2019-02-20T12:10:27.635Z,13.29
2019-02-20T12:13:15.442Z,13.29
2019-02-20T12:16:03.896Z,13.20
2019-02-20T12:18:52.220Z,13.32
2019-02-20T12:21:40.645Z,13.54
2019-02-20T12:24:29.094Z,13.52
2019-02-20T12:27:17.491Z,13.54
2019-02-20T12:30:06.853Z,13.27
2019-02-20T12:32:54.966Z,13.34
2019-02-20T12:35:43.324Z,13.39
2019-02-20T12:38:31.924Z,13.37
2019-02-20T12:41:19.555Z,13.27
2019-02-20T12:44:07.319Z,13.36
2019-02-20T12:46:55.683Z,13.45
2019-02-20T12:49:43.603Z,13.55
2019-02-20T12:52:31.291Z,13.40
2019-02-20T12:55:19.656Z,13.45
2019-02-20T12:58:08.020Z,13.46
2019-02-20T13:00:56.459Z,13.43
2019-02-20T13:03:44.856Z,13.44
2019-02-20T13:06:33.300Z,13.34
2019-02-20T13:09:05.004Z,13.30
2019-02-20T13:11:34.706Z,13.33
2019-02-20T13:14:04.488Z,13.50
2019-02-20T13:16:34.232Z,13.54
2019-02-20T13:19:03.977Z,13.73
2019-02-20T13:21:33.808Z,13.59
2019-02-20T13:24:03.556Z,13.57
2019-02-20T13:26:34.736Z,13.72
2019-02-20T13:29:04.623Z,13.78
2019-02-20T13:31:34.372Z,14.28
2019-02-20T13:34:04.114Z,14.58
2019-02-20T13:36:33.895Z,14.65
2019-02-20T13:39:04.812Z,14.77
2019-02-20T13:41:34.549Z,15.22
2019-02-20T13:44:04.795Z,15.08
2019-02-20T13:46:34.532Z,14.99
2019-02-20T13:49:04.273Z,15.29
2019-02-20T13:51:34.351Z,15.55
2019-02-20T13:54:04.091Z,15.58
2019-02-20T13:56:34.752Z,15.55
2019-02-20T13:59:04.539Z,15.87
2019-02-20T14:01:34.280Z,15.48
2019-02-20T14:04:04.080Z,15.74
2019-02-20T14:06:35.646Z,16.08
2019-02-20T14:09:07.145Z,16.08
2019-02-20T14:11:38.019Z,15.75
2019-02-20T14:14:09.149Z,15.69
2019-02-20T14:16:40.168Z,15.47
2019-02-20T14:19:11.039Z,15.47
2019-02-20T14:21:41.995Z,16.10
2019-02-20T14:24:12.845Z,15.22
2019-02-20T14:26:44.000Z,14.62
2019-02-20T14:29:13.999Z,13.29
2019-02-20T14:31:44.975Z,13.06
2019-02-20T14:34:16.363Z,12.80
2019-02-20T14:36:46.287Z,13.11
2019-02-20T14:39:16.049Z,14.31
2019-02-20T14:41:45.789Z,14.23
2019-02-20T14:44:15.610Z,14.60
2019-02-20T14:46:45.347Z,14.78
2019-02-20T14:49:15.301Z,14.68
2019-02-20T14:51:45.079Z,14.00
2019-02-20T14:54:14.817Z,13.31
2019-02-20T14:56:45.860Z,12.71
2019-02-20T14:59:15.692Z,12.21
2019-02-20T15:01:45.440Z,11.97
2019-02-20T15:04:15.188Z,11.56
2019-02-20T15:06:45.002Z,11.48
2019-02-20T15:09:15.718Z,11.33
2019-02-20T15:11:45.487Z,11.19
2019-02-20T15:14:16.224Z,11.05
2019-02-20T15:16:46.223Z,11.05
2019-02-20T15:19:15.952Z,10.98
2019-02-20T15:21:45.819Z,10.74
2019-02-20T15:24:15.632Z,10.54
2019-02-20T15:26:45.378Z,10.51
2019-02-20T15:29:15.179Z,10.45
2019-02-20T15:31:45.009Z,10.37
2019-02-20T15:34:14.751Z,10.30
2019-02-20T15:36:44.568Z,10.33
2019-02-20T15:39:14.375Z,10.17
2019-02-20T15:41:44.628Z,10.06
2019-02-20T15:44:14.578Z,9.85
2019-02-20T15:46:44.659Z,9.81
2019-02-20T15:49:14.424Z,9.66
2019-02-20T15:51:44.317Z,9.62
2019-02-20T15:54:14.076Z,9.65
2019-02-20T15:56:43.841Z,9.70
2019-02-20T15:59:13.813Z,9.64
2019-02-20T16:01:43.599Z,9.38
2019-02-20T16:04:13.347Z,9.53
2019-02-20T16:06:44.418Z,9.57
2019-02-20T16:09:14.599Z,9.59
2019-02-20T16:11:44.402Z,9.47
2019-02-20T16:14:14.207Z,9.17
2019-02-20T16:16:44.638Z,9.15
2019-02-20T16:19:14.428Z,9.01
2019-02-20T16:21:44.182Z,9.09
2019-02-20T16:24:13.927Z,8.87
2019-02-20T16:26:43.819Z,8.70
2019-02-20T16:29:13.694Z,8.63
2019-02-20T16:31:44.179Z,8.50
2019-02-20T16:34:13.965Z,8.25
2019-02-20T16:36:43.741Z,8.17
2019-02-20T16:39:13.489Z,8.32
2019-02-20T16:41:43.608Z,8.12
2019-02-20T16:44:13.595Z,7.93
2019-02-20T16:46:43.968Z,7.77
2019-02-20T16:49:13.801Z,7.53
2019-02-20T16:51:43.602Z,7.40
2019-02-20T16:54:13.340Z,7.28
2019-02-20T16:56:43.426Z,7.17
2019-02-20T16:59:14.235Z,7.16
2019-02-20T17:01:44.701Z,7.03
2019-02-20T17:04:14.531Z,6.95
2019-02-20T17:06:44.370Z,6.95
2019-02-20T17:09:14.119Z,6.96
2019-02-20T17:11:44.005Z,6.82
2019-02-20T17:14:13.771Z,6.98
2019-02-20T17:16:44.109Z,6.87
2019-02-20T17:19:13.910Z,6.60
2019-02-20T17:21:43.733Z,6.50
2019-02-20T17:24:13.450Z,6.37
2019-02-20T17:26:43.689Z,6.22
2019-02-20T17:29:13.513Z,6.08
2019-02-20T17:31:43.384Z,6.00
2019-02-20T17:34:13.174Z,6.03
2019-02-20T17:36:43.139Z,5.93
2019-02-20T17:39:13.219Z,5.81
2019-02-20T17:41:43.159Z,5.69
2019-02-20T17:44:12.992Z,5.93
2019-02-20T17:46:42.757Z,5.82
2019-02-20T17:49:12.691Z,5.53
2019-02-20T17:51:42.537Z,5.58
2019-02-20T17:54:12.293Z,5.79
2019-02-20T17:56:42.146Z,5.52
2019-02-20T17:59:12.403Z,5.51
2019-02-20T18:01:42.346Z,5.37
2019-02-20T18:04:12.176Z,5.60
2019-02-20T18:06:42.134Z,5.73
2019-02-20T18:09:12.066Z,5.50
2019-02-20T18:11:41.909Z,5.38
2019-02-20T18:14:11.768Z,5.16
2019-02-20T18:16:41.511Z,5.15
2019-02-20T18:19:11.392Z,4.99
2019-02-20T18:21:41.133Z,5.00
2019-02-20T18:24:10.965Z,4.90
2019-02-20T18:26:40.786Z,4.73
2019-02-20T18:29:10.552Z,4.68
2019-02-20T18:31:40.415Z,4.61
2019-02-20T18:34:10.623Z,4.36
2019-02-20T18:36:40.478Z,4.24
2019-02-20T18:39:10.395Z,4.50
2019-02-20T18:41:40.432Z,4.30
2019-02-20T18:44:10.456Z,4.23
2019-02-20T18:46:40.316Z,4.20
2019-02-20T18:49:12.516Z,4.25
2019-02-20T18:51:44.711Z,4.07
2019-02-20T18:54:14.464Z,3.97
2019-02-20T18:56:44.278Z,4.01
2019-02-20T18:59:14.106Z,3.91
2019-02-20T19:01:44.134Z,3.85
2019-02-20T19:04:14.149Z,3.92
2019-02-20T19:06:44.070Z,3.80
2019-02-20T19:09:32.956Z,3.78
2019-02-20T19:12:33.559Z,3.31
2019-02-20T19:15:11.057Z,3.17
2019-02-20T19:18:01.290Z,3.01
2019-02-20T19:20:51.924Z,2.86
2019-02-20T19:23:56.271Z,2.85
2019-02-20T19:26:41.414Z,3.02
2019-02-20T19:29:29.203Z,2.85
2019-02-20T19:32:21.420Z,2.91
2019-02-20T19:34:56.611Z,3.03
2019-02-20T19:38:06.209Z,3.53
2019-02-20T19:40:49.021Z,3.64
2019-02-20T19:43:40.811Z,3.13
2019-02-20T19:46:29.911Z,2.65
2019-02-20T19:49:24.907Z,2.09
2019-02-20T19:52:12.569Z,2.08
2019-02-20T19:54:50.254Z,2.08
2019-02-20T19:57:51.539Z,2.20
2019-02-20T20:00:40.357Z,2.42
2019-02-20T20:03:19.261Z,2.47
2019-02-20T20:06:12.704Z,2.50
2019-02-20T20:08:46.871Z,2.35
2019-02-20T20:11:44.245Z,2.61
2019-02-20T20:14:31.263Z,2.60
2019-02-20T20:17:08.775Z,2.35
2019-02-20T20:20:00.720Z,2.35
2019-02-20T20:23:07.978Z,2.49
2019-02-20T20:25:41.509Z,2.53
2019-02-20T20:28:14.411Z,2.37
2019-02-20T20:31:03.718Z,1.75
2019-02-20T20:33:55.582Z,1.36
2019-02-20T20:36:56.596Z,1.12
2019-02-20T20:39:44.902Z,1.24
2019-02-20T20:42:35.931Z,1.22
2019-02-20T20:45:27.689Z,1.31
2019-02-20T20:48:25.653Z,1.47
2019-02-20T20:51:08.517Z,1.40
2019-02-20T20:53:57.362Z,1.21
2019-02-20T20:56:56.850Z,1.15
2019-02-20T20:59:57.954Z,1.41
2019-02-20T21:02:58.353Z,1.19
2019-02-20T21:06:01.485Z,1.25
2019-02-20T21:09:11.260Z,1.30
2019-02-20T21:12:21.162Z,0.88
2019-02-20T21:15:27.996Z,0.66
2019-02-20T21:18:35.515Z,0.99
2019-02-20T21:21:43.045Z,1.08
2019-02-20T21:24:48.500Z,1.08
2019-02-20T21:27:55.959Z,1.20
2019-02-20T21:31:06.433Z,1.10
2019-02-20T21:34:13.967Z,0.94
2019-02-20T21:37:08.058Z,1.04
2019-02-20T21:39:58.907Z,1.09
2019-02-20T21:43:05.564Z,0.98
2019-02-20T21:46:03.721Z,1.10
2019-02-20T21:48:56.306Z,1.16
2019-02-20T21:52:09.936Z,0.79
2019-02-20T21:55:15.771Z,0.28
2019-02-20T21:58:21.535Z,0.13
2019-02-20T22:01:13.880Z,0.23
2019-02-20T22:04:19.177Z,0.54
2019-02-20T22:07:35.820Z,0.49
2019-02-20T22:10:42.352Z,0.61
2019-02-20T22:13:55.785Z,0.81
2019-02-20T22:17:09.484Z,0.93
2019-02-20T22:20:18.950Z,0.54
2019-02-20T22:23:14.908Z,0.53
2019-02-20T22:26:13.001Z,0.84
2019-02-20T22:29:20.494Z,0.64
2019-02-20T22:32:38.802Z,0.40
2019-02-20T22:35:53.732Z,0.57
2019-02-20T22:38:48.390Z,0.63
2019-02-20T22:41:45.383Z,0.38
2019-02-20T22:44:50.699Z,0.55
2019-02-20T22:48:09.999Z,0.55
2019-02-20T22:51:19.716Z,0.55
2019-02-20T22:54:14.765Z,0.23
2019-02-20T22:57:19.524Z,-0.24
2019-02-20T23:00:35.620Z,-0.46
2019-02-20T23:03:33.892Z,-0.63
2019-02-20T23:06:47.406Z,-0.60
2019-02-20T23:10:03.664Z,-0.22
2019-02-20T23:12:59.063Z,0.04
2019-02-20T23:15:46.776Z,-0.04
2019-02-20T23:18:35.399Z,0.14
2019-02-20T23:21:23.804Z,-0.16
2019-02-20T23:24:12.231Z,-0.35
2019-02-20T23:27:00.573Z,-0.91
2019-02-20T23:29:48.527Z,-1.32
2019-02-20T23:32:37.042Z,-1.40
2019-02-20T23:35:25.448Z,-1.02
2019-02-20T23:38:13.826Z,-0.67
2019-02-20T23:41:01.555Z,-0.44
2019-02-20T23:43:50.081Z,-0.25
2019-02-20T23:46:38.528Z,-0.07
2019-02-20T23:49:26.877Z,-0.30
2019-02-20T23:52:15.063Z,-0.90
2019-02-20T23:55:03.255Z,-0.71
2019-02-20T23:57:51.643Z,-0.74
